createdAt,value
2022-09-23T00:01:08.164Z,4.37
2022-09-23T00:03:37.122Z,4.43
2022-09-23T00:06:07.047Z,4.50
2022-09-23T00:08:33.759Z,4.27
2022-09-23T00:11:15.741Z,4.03
2022-09-23T00:13:44.380Z,4.07
2022-09-23T00:16:17.044Z,3.87
2022-09-23T00:18:44.325Z,4.33
2022-09-23T00:21:13.427Z,4.47
2022-09-23T00:23:42.731Z,4.77
2022-09-23T00:26:12.872Z,4.60
2022-09-23T00:28:40.451Z,4.40
2022-09-23T00:31:10.264Z,4.63
2022-09-23T00:33:36.988Z,4.77
2022-09-23T00:36:10.985Z,4.13
2022-09-23T00:38:38.619Z,4.13
2022-09-23T00:41:06.268Z,4.77
2022-09-23T00:43:43.416Z,4.60
2022-09-23T00:46:16.571Z,4.43
2022-09-23T00:48:44.689Z,4.40
2022-09-23T00:51:17.712Z,4.77
2022-09-23T00:53:46.848Z,3.47
2022-09-23T00:56:15.487Z,4.77
2022-09-23T00:58:44.388Z,5.00
2022-09-23T01:01:13.834Z,4.47
2022-09-23T01:03:44.359Z,4.23
2022-09-23T01:06:11.607Z,4.13
2022-09-23T01:08:38.887Z,4.70
2022-09-23T01:11:48.772Z,3.47
2022-09-23T01:14:27.524Z,4.03
2022-09-23T01:17:15.760Z,4.50
2022-09-23T01:20:03.409Z,4.17
2022-09-23T01:22:38.161Z,4.33
2022-09-23T01:25:43.328Z,4.20
2022-09-23T01:28:23.988Z,4.10
2022-09-23T01:31:24.303Z,4.00
2022-09-23T01:34:17.287Z,4.60
2022-09-23T01:36:53.236Z,4.17
2022-09-23T01:39:40.097Z,4.50
2022-09-23T01:42:32.253Z,4.30
2022-09-23T01:45:08.813Z,4.53
2022-09-23T01:47:41.093Z,5.37
2022-09-23T01:50:39.066Z,4.23
2022-09-23T01:53:22.906Z,4.00
2022-09-23T01:55:56.988Z,4.27
2022-09-23T01:58:29.443Z,4.70
2022-09-23T02:01:07.814Z,4.13
2022-09-23T02:03:43.655Z,4.30
2022-09-23T02:06:10.165Z,4.63
2022-09-23T02:08:47.260Z,4.43
2022-09-23T02:11:16.010Z,5.27
2022-09-23T02:13:45.625Z,4.40
2022-09-23T02:16:32.880Z,5.03
2022-09-23T02:19:08.492Z,3.90
2022-09-23T02:21:40.668Z,4.50
2022-09-23T02:24:21.669Z,4.17
2022-09-23T02:27:18.242Z,4.43
2022-09-23T02:29:53.896Z,4.60
2022-09-23T02:32:29.014Z,4.23
2022-09-23T02:35:32.961Z,4.10
2022-09-23T02:38:18.153Z,4.10
2022-09-23T02:40:59.972Z,4.80
2022-09-23T02:43:39.131Z,4.50
2022-09-23T02:46:07.170Z,4.17
2022-09-23T02:48:43.243Z,4.63
2022-09-23T02:51:10.601Z,4.77
2022-09-23T02:53:38.048Z,4.20
2022-09-23T02:56:20.260Z,4.43
2022-09-23T02:58:53.424Z,4.80
2022-09-23T03:01:47.493Z,4.30
2022-09-23T03:04:22.975Z,4.70
2022-09-23T03:06:58.966Z,4.70
2022-09-23T03:09:58.117Z,4.80
2022-09-23T03:12:35.947Z,5.00
2022-09-23T03:15:18.757Z,4.50
2022-09-23T03:18:11.642Z,4.73
2022-09-23T03:20:50.046Z,4.57
2022-09-23T03:23:26.056Z,5.13
2022-09-23T03:25:55.377Z,4.93
2022-09-23T03:28:37.273Z,4.57
2022-09-23T03:31:04.779Z,4.53
2022-09-23T03:33:32.623Z,5.37
2022-09-23T03:36:27.771Z,4.30
2022-09-23T03:39:02.254Z,5.10
2022-09-23T03:41:34.842Z,4.77
2022-09-23T03:44:02.965Z,5.47
2022-09-23T03:46:30.102Z,5.00
2022-09-23T03:49:06.357Z,4.77
2022-09-23T03:51:32.965Z,4.67
2022-09-23T03:53:59.625Z,5.80
2022-09-23T03:56:26.199Z,5.10
2022-09-23T03:58:52.819Z,5.90
2022-09-23T04:01:19.501Z,5.73
2022-09-23T04:03:46.304Z,4.50
2022-09-23T04:06:13.259Z,5.50
2022-09-23T04:08:39.876Z,5.00
2022-09-23T04:11:06.719Z,7.30
2022-09-23T04:13:33.591Z,16.00
2022-09-23T04:16:00.362Z,12.33
2022-09-23T04:18:27.205Z,7.93
2022-09-23T04:20:59.456Z,5.33
2022-09-23T04:23:26.991Z,5.93
2022-09-23T04:25:54.150Z,5.30
2022-09-23T04:28:21.557Z,6.97
2022-09-23T04:30:48.968Z,5.70
2022-09-23T04:33:16.498Z,5.70
2022-09-23T04:35:43.430Z,7.80
2022-09-23T04:38:12.336Z,6.07
2022-09-23T04:40:39.089Z,5.90
2022-09-23T04:43:07.193Z,5.47
2022-09-23T04:45:36.444Z,5.53
2022-09-23T04:48:03.438Z,5.20
2022-09-23T04:50:30.016Z,5.40
2022-09-23T04:52:56.671Z,6.50
2022-09-23T04:55:23.318Z,5.40
2022-09-23T04:57:49.888Z,4.90
2022-09-23T05:00:16.693Z,4.80
2022-09-23T05:02:45.417Z,6.13
2022-09-23T05:05:13.061Z,6.10
2022-09-23T05:07:40.363Z,5.30
2022-09-23T05:10:07.877Z,5.43
2022-09-23T05:12:34.473Z,5.30
2022-09-23T05:15:01.049Z,6.80
2022-09-23T05:17:29.091Z,6.23
2022-09-23T05:19:57.201Z,5.73
2022-09-23T05:22:26.110Z,5.80
2022-09-23T05:24:53.348Z,4.50
2022-09-23T05:27:20.897Z,5.30
2022-09-23T05:29:49.329Z,5.87
2022-09-23T05:32:16.005Z,5.10
2022-09-23T05:34:43.015Z,6.00
2022-09-23T05:37:09.945Z,6.43
2022-09-23T05:39:36.889Z,6.20
2022-09-23T05:42:03.923Z,6.53
2022-09-23T05:44:30.571Z,6.37
2022-09-23T05:46:57.427Z,5.80
2022-09-23T05:49:33.202Z,5.30
2022-09-23T05:52:09.401Z,5.97
2022-09-23T05:54:37.489Z,6.43
2022-09-23T05:57:05.133Z,7.20
2022-09-23T05:59:32.174Z,6.40
2022-09-23T06:01:59.083Z,5.90
2022-09-23T06:04:25.707Z,6.60
2022-09-23T06:06:53.080Z,6.70
2022-09-23T06:09:19.663Z,6.17
2022-09-23T06:11:46.720Z,8.23
2022-09-23T06:14:14.666Z,7.97
2022-09-23T06:16:41.374Z,7.93
2022-09-23T06:19:07.957Z,16.03
2022-09-23T06:21:36.639Z,17.67
2022-09-23T06:24:04.192Z,16.30
2022-09-23T06:26:33.637Z,14.43
2022-09-23T06:29:02.289Z,11.53
2022-09-23T06:31:29.493Z,11.93
2022-09-23T06:34:07.725Z,12.83
2022-09-23T06:36:43.213Z,11.60
2022-09-23T06:39:11.466Z,9.13
2022-09-23T06:41:39.055Z,7.00
2022-09-23T06:44:05.944Z,7.67
2022-09-23T06:46:32.765Z,6.93
2022-09-23T06:48:59.453Z,6.60
2022-09-23T06:51:26.108Z,6.50
2022-09-23T06:53:52.836Z,6.83
2022-09-23T06:56:21.899Z,6.80
2022-09-23T06:58:49.663Z,6.50
2022-09-23T07:01:17.977Z,6.40
2022-09-23T07:03:46.195Z,7.30
2022-09-23T07:06:12.948Z,6.50
2022-09-23T07:08:47.040Z,8.07
2022-09-23T07:11:15.148Z,8.47
2022-09-23T07:13:42.575Z,10.00
2022-09-23T07:16:10.818Z,10.60
2022-09-23T07:18:37.860Z,9.97
2022-09-23T07:21:16.922Z,10.40
2022-09-23T07:23:45.900Z,9.87
2022-09-23T07:26:13.687Z,10.10
2022-09-23T07:28:40.492Z,10.30
2022-09-23T07:31:10.325Z,8.60
2022-09-23T07:33:38.652Z,8.67
2022-09-23T07:36:08.091Z,8.13
2022-09-23T07:38:35.533Z,8.97
2022-09-23T07:41:07.385Z,7.93
2022-09-23T07:43:35.521Z,9.50
2022-09-23T07:46:06.905Z,9.00
2022-09-23T07:48:34.732Z,8.10
2022-09-23T07:51:07.568Z,6.90
2022-09-23T07:53:34.308Z,7.37
2022-09-23T07:56:01.007Z,7.10
2022-09-23T07:58:27.717Z,6.00
2022-09-23T08:00:54.288Z,7.73
2022-09-23T08:03:21.183Z,7.30
2022-09-23T08:05:48.081Z,7.80
2022-09-23T08:08:14.750Z,7.80
2022-09-23T08:10:41.474Z,6.70
2022-09-23T08:13:08.140Z,6.60
2022-09-23T08:15:34.853Z,6.57
2022-09-23T08:18:03.278Z,6.93
2022-09-23T08:20:47.272Z,7.30
2022-09-23T08:23:16.108Z,6.97
2022-09-23T08:25:47.049Z,6.70
2022-09-23T08:28:19.101Z,7.40
2022-09-23T08:30:48.733Z,7.27
2022-09-23T08:33:19.669Z,7.10
2022-09-23T08:35:49.642Z,6.93
2022-09-23T08:38:16.238Z,8.17
2022-09-23T08:40:47.406Z,6.73
2022-09-23T08:43:35.855Z,6.63
2022-09-23T08:46:05.151Z,7.53
2022-09-23T08:48:39.065Z,6.30
2022-09-23T08:51:12.527Z,7.40
2022-09-23T08:53:39.791Z,7.57
2022-09-23T08:56:13.155Z,7.50
2022-09-23T08:58:53.090Z,6.77
2022-09-23T09:01:19.810Z,6.37
2022-09-23T09:03:53.776Z,6.37
2022-09-23T09:07:18.303Z,6.30
2022-09-23T09:09:50.805Z,6.67
2022-09-23T09:12:22.966Z,7.20
2022-09-23T09:15:02.130Z,6.70
2022-09-23T09:17:39.955Z,7.07
2022-09-23T09:20:18.842Z,6.57
2022-09-23T09:23:10.878Z,6.47
2022-09-23T09:25:49.443Z,5.90
2022-09-23T09:28:27.731Z,7.23
2022-09-23T09:30:59.767Z,5.63
2022-09-23T09:33:44.765Z,6.00
2022-09-23T09:36:39.862Z,6.10
2022-09-23T09:39:09.295Z,7.17
2022-09-23T09:41:35.915Z,7.37
2022-09-23T09:44:17.148Z,7.20
2022-09-23T09:47:02.626Z,6.07
2022-09-23T09:49:40.374Z,6.77
2022-09-23T09:52:42.773Z,6.53
2022-09-23T09:55:12.263Z,6.50
2022-09-23T09:57:52.011Z,6.63
2022-09-23T10:00:36.049Z,5.97
2022-09-23T10:03:39.537Z,5.63
2022-09-23T10:06:30.460Z,6.83
2022-09-23T10:09:12.847Z,5.90
2022-09-23T10:11:40.694Z,6.00
2022-09-23T10:14:17.841Z,6.40
2022-09-23T10:16:47.029Z,6.60
2022-09-23T10:19:41.614Z,6.80
2022-09-23T10:22:29.811Z,6.83
2022-09-23T10:25:05.629Z,5.50
2022-09-23T10:27:35.707Z,6.57
2022-09-23T10:30:06.997Z,6.67
2022-09-23T10:32:43.739Z,5.70
2022-09-23T10:35:11.260Z,5.90
2022-09-23T10:37:49.289Z,5.90
2022-09-23T10:40:53.372Z,5.27
2022-09-23T10:44:00.659Z,5.20
2022-09-23T10:47:09.502Z,4.90
2022-09-23T10:49:54.244Z,5.27
2022-09-23T10:52:55.141Z,4.80
2022-09-23T10:55:40.017Z,5.77
2022-09-23T10:58:19.283Z,5.60
2022-09-23T11:01:01.039Z,4.97
2022-09-23T11:04:00.060Z,5.93
2022-09-23T11:06:58.686Z,5.60
2022-09-23T11:09:28.284Z,5.27
2022-09-23T11:11:54.875Z,5.80
2022-09-23T11:14:45.196Z,4.70
2022-09-23T11:17:20.585Z,5.50
2022-09-23T11:19:56.445Z,5.10
2022-09-23T11:23:00.807Z,5.23
2022-09-23T11:25:28.002Z,5.80
2022-09-23T11:28:23.307Z,5.37
2022-09-23T11:31:21.254Z,5.03
2022-09-23T11:33:52.663Z,4.50
2022-09-23T11:36:37.284Z,4.47
2022-09-23T11:39:15.034Z,4.40
2022-09-23T11:41:43.142Z,4.00
2022-09-23T11:44:21.721Z,5.47
2022-09-23T11:47:08.999Z,4.00
2022-09-23T11:49:49.913Z,5.03
2022-09-23T11:52:27.469Z,5.43
2022-09-23T11:55:07.267Z,4.60
2022-09-23T11:57:48.885Z,5.10
2022-09-23T12:00:22.027Z,4.23
2022-09-23T12:03:04.906Z,4.90
2022-09-23T12:05:58.991Z,5.87
2022-09-23T12:08:36.976Z,4.70
2022-09-23T12:11:31.407Z,4.47
2022-09-23T12:14:04.047Z,4.63
2022-09-23T12:16:59.845Z,3.90
2022-09-23T12:19:57.427Z,3.80
2022-09-23T12:22:42.111Z,3.77
2022-09-23T12:25:23.735Z,4.03
2022-09-23T12:27:52.954Z,3.70
2022-09-23T12:30:23.044Z,3.90
2022-09-23T12:32:49.760Z,4.23
2022-09-23T12:35:33.464Z,4.27
2022-09-23T12:38:01.183Z,4.27
2022-09-23T12:40:35.307Z,4.83
2022-09-23T12:43:02.585Z,3.60
2022-09-23T12:45:32.477Z,3.93
2022-09-23T12:48:00.118Z,4.83
2022-09-23T12:50:54.725Z,4.50
2022-09-23T12:53:33.639Z,4.40
2022-09-23T12:56:13.678Z,3.63
2022-09-23T12:58:43.308Z,3.87
2022-09-23T13:01:17.336Z,4.20
2022-09-23T13:04:12.307Z,3.60
2022-09-23T13:06:59.074Z,4.30
2022-09-23T13:09:30.968Z,3.93
2022-09-23T13:12:04.402Z,4.60
2022-09-23T13:14:33.046Z,4.50
2022-09-23T13:17:00.390Z,3.70
2022-09-23T13:19:27.057Z,4.00
2022-09-23T13:21:53.597Z,3.53
2022-09-23T13:24:22.946Z,4.17
2022-09-23T13:27:00.453Z,4.27
2022-09-23T13:29:37.590Z,4.17
2022-09-23T13:32:05.962Z,3.60
2022-09-23T13:34:34.867Z,4.40
2022-09-23T13:37:45.366Z,4.73
2022-09-23T13:40:24.194Z,3.60
2022-09-23T13:43:08.917Z,3.70
2022-09-23T13:45:43.585Z,3.80
2022-09-23T13:48:15.323Z,3.40
2022-09-23T13:50:50.595Z,3.17
2022-09-23T13:53:26.053Z,4.07
2022-09-23T13:56:05.804Z,4.53
2022-09-23T13:58:34.250Z,4.50
2022-09-23T14:01:02.142Z,3.87
2022-09-23T14:03:35.393Z,3.90
2022-09-23T14:06:08.727Z,3.60
2022-09-23T14:08:37.066Z,3.73
2022-09-23T14:11:05.099Z,3.90
2022-09-23T14:13:41.766Z,3.70
2022-09-23T14:16:11.308Z,4.30
2022-09-23T14:18:41.199Z,4.23
2022-09-23T14:21:26.860Z,3.50
2022-09-23T14:23:53.459Z,3.70
2022-09-23T14:26:21.053Z,3.07
2022-09-23T14:28:48.255Z,3.50
2022-09-23T14:31:15.271Z,2.90
2022-09-23T14:33:42.886Z,3.73
2022-09-23T14:36:34.835Z,2.80
2022-09-23T14:39:10.151Z,2.97
2022-09-23T14:41:45.871Z,3.30
2022-09-23T14:44:22.147Z,3.00
2022-09-23T14:46:59.478Z,3.43
2022-09-23T14:49:27.146Z,3.00
2022-09-23T14:52:00.631Z,3.33
2022-09-23T14:55:01.916Z,3.37
2022-09-23T14:57:32.294Z,2.70
2022-09-23T15:00:02.388Z,3.20
2022-09-23T15:02:32.790Z,3.20
2022-09-23T15:05:17.895Z,2.90
2022-09-23T15:07:51.295Z,2.83
2022-09-23T15:10:23.476Z,2.93
2022-09-23T15:12:52.320Z,3.50
2022-09-23T15:15:19.442Z,2.87
2022-09-23T15:17:46.552Z,2.47
2022-09-23T15:20:16.153Z,3.00
2022-09-23T15:22:45.008Z,3.03
2022-09-23T15:25:18.301Z,2.80
2022-09-23T15:28:02.366Z,2.67
2022-09-23T15:30:30.539Z,3.70
2022-09-23T15:32:57.645Z,3.00
2022-09-23T15:35:26.621Z,3.33
2022-09-23T15:37:58.077Z,2.60
2022-09-23T15:40:26.196Z,2.93
2022-09-23T15:42:56.703Z,2.80
2022-09-23T15:45:44.559Z,3.40
2022-09-23T15:48:14.611Z,2.40
2022-09-23T15:50:42.701Z,2.87
2022-09-23T15:53:17.376Z,2.77
2022-09-23T15:55:44.544Z,3.20
2022-09-23T15:58:11.539Z,2.43
2022-09-23T16:00:38.342Z,2.23
2022-09-23T16:03:06.521Z,2.73
2022-09-23T16:05:37.896Z,2.60
2022-09-23T16:08:09.830Z,2.30
2022-09-23T16:10:37.245Z,2.70
2022-09-23T16:13:06.715Z,2.27
2022-09-23T16:15:33.707Z,2.83
2022-09-23T16:18:01.143Z,3.43
2022-09-23T16:20:29.969Z,3.10
2022-09-23T16:23:03.345Z,3.20
2022-09-23T16:25:33.893Z,2.90
2022-09-23T16:28:00.626Z,2.57
2022-09-23T16:30:29.615Z,3.33
2022-09-23T16:32:56.489Z,2.90
2022-09-23T16:35:25.468Z,3.73
2022-09-23T16:37:52.843Z,3.40
2022-09-23T16:40:22.487Z,3.00
2022-09-23T16:42:51.993Z,3.07
2022-09-23T16:45:22.886Z,2.90
2022-09-23T16:47:51.766Z,3.10
2022-09-23T16:50:22.546Z,2.97
2022-09-23T16:52:56.785Z,3.00
2022-09-23T16:55:25.636Z,2.93
2022-09-23T16:57:53.803Z,3.17
2022-09-23T17:00:39.922Z,3.13
2022-09-23T17:03:25.583Z,3.30
2022-09-23T17:05:54.402Z,3.40
2022-09-23T17:08:20.979Z,3.13
2022-09-23T17:10:57.031Z,3.43
2022-09-23T17:13:25.339Z,3.43
2022-09-23T17:15:53.171Z,3.60
2022-09-23T17:18:20.861Z,3.40
2022-09-23T17:21:04.869Z,3.60
2022-09-23T17:23:33.377Z,3.47
2022-09-23T17:26:00.068Z,4.07
2022-09-23T17:28:26.957Z,6.23
2022-09-23T17:31:02.184Z,5.90
2022-09-23T17:33:31.270Z,5.60
2022-09-23T17:35:59.837Z,4.53
2022-09-23T17:38:29.069Z,5.57
2022-09-23T17:40:58.972Z,6.60
2022-09-23T17:43:25.963Z,4.73
2022-09-23T17:45:54.410Z,5.20
2022-09-23T17:48:22.178Z,5.60
2022-09-23T17:50:56.739Z,5.60
2022-09-23T17:53:24.183Z,5.60
2022-09-23T17:56:04.152Z,4.93
2022-09-23T17:58:33.632Z,6.07
2022-09-23T18:01:00.715Z,5.23
2022-09-23T18:03:28.827Z,5.10
2022-09-23T18:06:05.326Z,5.40
2022-09-23T18:08:31.972Z,4.87
2022-09-23T18:10:58.624Z,4.23
2022-09-23T18:13:25.237Z,4.97
2022-09-23T18:15:52.007Z,4.40
2022-09-23T18:18:18.656Z,6.10
2022-09-23T18:20:45.368Z,5.30
2022-09-23T18:23:11.965Z,5.70
2022-09-23T18:25:39.785Z,5.50
2022-09-23T18:28:06.761Z,5.00
2022-09-23T18:30:33.455Z,5.07
2022-09-23T18:33:00.126Z,5.07
2022-09-23T18:35:26.738Z,5.70
2022-09-23T18:37:53.314Z,5.23
2022-09-23T18:40:19.936Z,6.63
2022-09-23T18:42:46.930Z,6.07
2022-09-23T18:45:13.554Z,6.13
2022-09-23T18:47:58.657Z,5.97
2022-09-23T18:50:41.894Z,6.20
2022-09-23T18:53:09.386Z,5.70
2022-09-23T18:55:36.781Z,5.90
2022-09-23T18:58:07.260Z,5.57
2022-09-23T19:00:34.927Z,5.10
2022-09-23T19:03:02.102Z,5.43
2022-09-23T19:05:28.990Z,6.00
2022-09-23T19:07:55.594Z,5.37
2022-09-23T19:10:22.289Z,6.13
2022-09-23T19:12:49.141Z,8.40
2022-09-23T19:15:15.786Z,7.37
2022-09-23T19:17:42.430Z,7.63
2022-09-23T19:20:10.015Z,7.53
2022-09-23T19:22:36.655Z,5.97
2022-09-23T19:25:03.718Z,7.37
2022-09-23T19:27:30.318Z,6.40
2022-09-23T19:29:57.745Z,7.23
2022-09-23T19:32:26.965Z,8.10
2022-09-23T19:34:53.652Z,8.57
2022-09-23T19:37:20.245Z,8.30
2022-09-23T19:39:47.551Z,7.60
2022-09-23T19:42:14.258Z,6.00
2022-09-23T19:44:40.920Z,7.30
2022-09-23T19:47:07.891Z,8.27
2022-09-23T19:49:35.444Z,8.43
2022-09-23T19:52:02.257Z,8.90
2022-09-23T19:54:28.850Z,8.00
2022-09-23T19:56:55.646Z,9.13
2022-09-23T19:59:22.301Z,11.10
2022-09-23T20:01:49.138Z,8.93
2022-09-23T20:04:16.606Z,8.30
2022-09-23T20:06:43.322Z,6.70
2022-09-23T20:09:09.988Z,6.67
2022-09-23T20:11:36.651Z,7.93
2022-09-23T20:14:05.887Z,8.60
2022-09-23T20:16:35.161Z,7.90
2022-09-23T20:19:03.976Z,7.47
2022-09-23T20:21:31.168Z,6.97
2022-09-23T20:23:58.255Z,7.17
2022-09-23T20:26:43.288Z,6.90
2022-09-23T20:29:10.950Z,6.37
2022-09-23T20:31:40.197Z,6.20
2022-09-23T20:34:08.082Z,7.07
2022-09-23T20:36:35.921Z,6.83
2022-09-23T20:39:07.883Z,6.67
2022-09-23T20:41:37.701Z,7.37
2022-09-23T20:44:07.391Z,7.63
2022-09-23T20:46:34.623Z,6.20
2022-09-23T20:49:01.852Z,6.83
2022-09-23T20:51:28.582Z,7.20
2022-09-23T20:53:55.425Z,7.13
2022-09-23T20:56:25.647Z,7.10
2022-09-23T20:58:54.012Z,6.60
2022-09-23T21:01:21.433Z,7.10
2022-09-23T21:03:50.135Z,7.50
2022-09-23T21:06:19.357Z,6.30
2022-09-23T21:08:46.560Z,7.87
2022-09-23T21:11:16.271Z,8.57
2022-09-23T21:13:47.718Z,7.77
2022-09-23T21:16:15.953Z,7.40
2022-09-23T21:18:43.377Z,7.40
2022-09-23T21:21:11.404Z,7.60
2022-09-23T21:23:39.046Z,7.43
2022-09-23T21:26:08.087Z,7.40
2022-09-23T21:28:37.151Z,7.00
2022-09-23T21:31:07.523Z,6.90
2022-09-23T21:33:36.593Z,6.80
2022-09-23T21:36:05.767Z,8.23
2022-09-23T21:38:39.141Z,7.30
2022-09-23T21:41:08.367Z,8.20
2022-09-23T21:43:38.290Z,7.17
2022-09-23T21:46:07.421Z,7.40
2022-09-23T21:48:40.971Z,8.10
2022-09-23T21:51:14.341Z,13.73
2022-09-23T21:53:42.423Z,8.50
2022-09-23T21:56:19.604Z,7.20
2022-09-23T21:58:47.386Z,7.47
2022-09-23T22:01:24.575Z,7.10
2022-09-23T22:03:59.318Z,7.20
2022-09-23T22:06:27.995Z,6.80
2022-09-23T22:09:01.123Z,7.13
2022-09-23T22:11:48.945Z,7.23
2022-09-23T22:14:17.053Z,6.70
2022-09-23T22:16:44.194Z,7.20
2022-09-23T22:19:12.476Z,7.90
2022-09-23T22:21:40.621Z,7.53
2022-09-23T22:24:08.910Z,6.70
2022-09-23T22:26:41.583Z,7.43
2022-09-23T22:29:29.139Z,7.83
2022-09-23T22:32:14.588Z,8.13
2022-09-23T22:34:53.205Z,7.17
2022-09-23T22:37:25.374Z,7.27
2022-09-23T22:39:52.008Z,7.97
2022-09-23T22:42:21.066Z,7.63
2022-09-23T22:44:48.013Z,8.70
2022-09-23T22:47:15.418Z,7.23
2022-09-23T22:49:42.808Z,6.83
2022-09-23T22:52:11.123Z,7.40
2022-09-23T22:54:37.771Z,7.87
2022-09-23T22:57:08.980Z,7.93
2022-09-23T22:59:37.376Z,7.57
2022-09-23T23:02:05.030Z,7.03
2022-09-23T23:04:31.947Z,7.30
2022-09-23T23:06:58.690Z,7.90
2022-09-23T23:09:25.411Z,7.97
2022-09-23T23:11:51.991Z,7.83
2022-09-23T23:14:19.040Z,7.77
2022-09-23T23:16:46.176Z,7.83
2022-09-23T23:19:16.793Z,6.60
2022-09-23T23:21:44.618Z,7.53
2022-09-23T23:24:17.331Z,8.00
2022-09-23T23:26:44.506Z,8.73
2022-09-23T23:29:13.257Z,7.67
2022-09-23T23:31:40.670Z,7.40
2022-09-23T23:34:11.505Z,8.33
2022-09-23T23:36:38.431Z,7.87
2022-09-23T23:39:05.337Z,8.30
2022-09-23T23:41:32.042Z,8.17
2022-09-23T23:44:00.282Z,8.60
2022-09-23T23:46:28.743Z,9.23
2022-09-23T23:48:56.640Z,8.57
2022-09-23T23:51:26.286Z,8.80
2022-09-23T23:53:53.920Z,9.63
2022-09-23T23:56:22.796Z,9.57
2022-09-23T23:58:57.771Z,7.77
